sensor_id;sensor_type;location;lat;lon;timestamp;P1;durP1;ratioP1;P2;durP2;ratioP2
7997;SDS011;4044;49.814;7.828;2023-08-20T00:00:19;17.52;;;15.18;;
7997;SDS011;4044;49.814;7.828;2023-08-20T00:02:45;17.35;;;14.55;;
7997;SDS011;4044;49.814;7.828;2023-08-20T00:05:12;20.15;;;16.40;;
7997;SDS011;4044;49.814;7.828;2023-08-20T00:07:38;18.88;;;16.17;;
7997;SDS011;4044;49.814;7.828;2023-08-20T00:10:05;18.38;;;15.77;;
7997;SDS011;4044;49.814;7.828;2023-08-20T00:12:31;16.38;;;14.70;;
7997;SDS011;4044;49.814;7.828;2023-08-20T00:15:00;22.95;;;14.98;;
7997;SDS011;4044;49.814;7.828;2023-08-20T00:17:31;16.48;;;14.18;;
7997;SDS011;4044;49.814;7.828;2023-08-20T00:19:57;16.05;;;14.35;;
7997;SDS011;4044;49.814;7.828;2023-08-20T00:22:23;16.00;;;14.43;;
7997;SDS011;4044;49.814;7.828;2023-08-20T00:24:50;15.55;;;14.05;;
7997;SDS011;4044;49.814;7.828;2023-08-20T00:27:17;15.30;;;13.63;;
7997;SDS011;4044;49.814;7.828;2023-08-20T00:29:43;15.77;;;14.15;;
7997;SDS011;4044;49.814;7.828;2023-08-20T00:32:09;14.90;;;13.30;;
7997;SDS011;4044;49.814;7.828;2023-08-20T00:34:35;15.40;;;13.90;;
7997;SDS011;4044;49.814;7.828;2023-08-20T00:37:01;15.63;;;13.60;;
7997;SDS011;4044;49.814;7.828;2023-08-20T00:39:27;16.65;;;14.85;;
7997;SDS011;4044;49.814;7.828;2023-08-20T00:41:53;16.23;;;14.52;;
7997;SDS011;4044;49.814;7.828;2023-08-20T00:44:19;16.33;;;14.65;;
7997;SDS011;4044;49.814;7.828;2023-08-20T00:46:45;18.23;;;16.25;;
7997;SDS011;4044;49.814;7.828;2023-08-20T00:49:10;22.33;;;18.27;;
7997;SDS011;4044;49.814;7.828;2023-08-20T00:51:36;22.20;;;18.92;;
7997;SDS011;4044;49.814;7.828;2023-08-20T00:54:02;18.20;;;16.25;;
7997;SDS011;4044;49.814;7.828;2023-08-20T00:56:28;19.73;;;17.73;;
7997;SDS011;4044;49.814;7.828;2023-08-20T00:58:54;19.33;;;15.50;;
7997;SDS011;4044;49.814;7.828;2023-08-20T01:01:21;19.63;;;15.23;;
7997;SDS011;4044;49.814;7.828;2023-08-20T01:03:46;18.33;;;16.42;;
7997;SDS011;4044;49.814;7.828;2023-08-20T01:06:15;17.42;;;15.57;;
7997;SDS011;4044;49.814;7.828;2023-08-20T01:08:53;19.77;;;16.75;;
7997;SDS011;4044;49.814;7.828;2023-08-20T01:11:33;17.02;;;15.23;;
7997;SDS011;4044;49.814;7.828;2023-08-20T01:14:02;18.58;;;15.30;;
7997;SDS011;4044;49.814;7.828;2023-08-20T01:16:27;20.40;;;16.23;;
7997;SDS011;4044;49.814;7.828;2023-08-20T01:18:53;16.67;;;14.80;;
7997;SDS011;4044;49.814;7.828;2023-08-20T01:21:43;18.02;;;15.30;;
7997;SDS011;4044;49.814;7.828;2023-08-20T01:29:32;22.35;;;18.05;;
7997;SDS011;4044;49.814;7.828;2023-08-20T01:31:58;20.83;;;18.67;;
7997;SDS011;4044;49.814;7.828;2023-08-20T01:34:24;19.50;;;17.58;;
7997;SDS011;4044;49.814;7.828;2023-08-20T01:36:51;23.23;;;18.83;;
7997;SDS011;4044;49.814;7.828;2023-08-20T01:39:17;19.20;;;16.55;;
7997;SDS011;4044;49.814;7.828;2023-08-20T01:41:43;17.25;;;15.40;;
7997;SDS011;4044;49.814;7.828;2023-08-20T01:44:09;17.65;;;15.02;;
7997;SDS011;4044;49.814;7.828;2023-08-20T01:46:35;17.50;;;15.85;;
7997;SDS011;4044;49.814;7.828;2023-08-20T01:49:00;20.33;;;15.23;;
7997;SDS011;4044;49.814;7.828;2023-08-20T01:51:26;18.38;;;15.38;;
7997;SDS011;4044;49.814;7.828;2023-08-20T01:53:51;14.85;;;13.55;;
7997;SDS011;4044;49.814;7.828;2023-08-20T01:56:17;18.80;;;15.57;;
7997;SDS011;4044;49.814;7.828;2023-08-20T01:58:42;16.83;;;15.05;;
7997;SDS011;4044;49.814;7.828;2023-08-20T02:01:08;17.00;;;14.52;;
7997;SDS011;4044;49.814;7.828;2023-08-20T02:03:34;16.50;;;14.77;;
7997;SDS011;4044;49.814;7.828;2023-08-20T02:06:01;15.25;;;13.80;;
7997;SDS011;4044;49.814;7.828;2023-08-20T02:08:26;18.08;;;16.20;;
7997;SDS011;4044;49.814;7.828;2023-08-20T02:10:59;17.77;;;15.95;;
7997;SDS011;4044;49.814;7.828;2023-08-20T02:13:25;18.52;;;16.70;;
7997;SDS011;4044;49.814;7.828;2023-08-20T02:15:58;17.67;;;15.82;;
7997;SDS011;4044;49.814;7.828;2023-08-20T02:18:27;18.48;;;16.30;;
7997;SDS011;4044;49.814;7.828;2023-08-20T02:20:54;20.75;;;18.52;;
7997;SDS011;4044;49.814;7.828;2023-08-20T02:23:19;18.02;;;15.60;;
7997;SDS011;4044;49.814;7.828;2023-08-20T02:25:45;16.00;;;14.60;;
7997;SDS011;4044;49.814;7.828;2023-08-20T02:28:11;15.80;;;14.18;;
7997;SDS011;4044;49.814;7.828;2023-08-20T02:30:43;15.43;;;13.93;;
7997;SDS011;4044;49.814;7.828;2023-08-20T02:33:11;19.75;;;14.65;;
7997;SDS011;4044;49.814;7.828;2023-08-20T02:35:37;17.63;;;15.75;;
7997;SDS011;4044;49.814;7.828;2023-08-20T02:38:03;17.20;;;15.32;;
7997;SDS011;4044;49.814;7.828;2023-08-20T02:40:29;16.45;;;14.45;;
7997;SDS011;4044;49.814;7.828;2023-08-20T02:42:54;18.02;;;16.13;;
7997;SDS011;4044;49.814;7.828;2023-08-20T02:45:20;19.23;;;16.48;;
7997;SDS011;4044;49.814;7.828;2023-08-20T02:47:45;27.10;;;16.60;;
7997;SDS011;4044;49.814;7.828;2023-08-20T02:50:11;17.13;;;13.80;;
7997;SDS011;4044;49.814;7.828;2023-08-20T02:52:36;19.75;;;14.27;;
7997;SDS011;4044;49.814;7.828;2023-08-20T02:55:02;15.43;;;13.82;;
7997;SDS011;4044;49.814;7.828;2023-08-20T02:57:29;17.80;;;15.90;;
7997;SDS011;4044;49.814;7.828;2023-08-20T02:59:55;15.75;;;13.35;;
7997;SDS011;4044;49.814;7.828;2023-08-20T03:02:21;15.52;;;13.90;;
7997;SDS011;4044;49.814;7.828;2023-08-20T03:04:47;14.98;;;13.50;;
7997;SDS011;4044;49.814;7.828;2023-08-20T03:07:13;16.38;;;14.40;;
7997;SDS011;4044;49.814;7.828;2023-08-20T03:09:38;15.85;;;13.98;;
7997;SDS011;4044;49.814;7.828;2023-08-20T03:12:04;18.13;;;16.33;;
7997;SDS011;4044;49.814;7.828;2023-08-20T03:14:30;15.30;;;13.70;;
7997;SDS011;4044;49.814;7.828;2023-08-20T03:16:55;17.75;;;14.45;;
7997;SDS011;4044;49.814;7.828;2023-08-20T03:19:21;18.92;;;14.35;;
7997;SDS011;4044;49.814;7.828;2023-08-20T03:21:46;17.67;;;15.77;;
7997;SDS011;4044;49.814;7.828;2023-08-20T03:24:12;18.10;;;13.93;;
7997;SDS011;4044;49.814;7.828;2023-08-20T03:26:37;14.90;;;13.43;;
7997;SDS011;4044;49.814;7.828;2023-08-20T03:29:03;17.30;;;14.70;;
7997;SDS011;4044;49.814;7.828;2023-08-20T03:31:29;15.00;;;13.50;;
7997;SDS011;4044;49.814;7.828;2023-08-20T03:33:54;16.58;;;14.73;;
7997;SDS011;4044;49.814;7.828;2023-08-20T03:36:20;15.45;;;13.70;;
7997;SDS011;4044;49.814;7.828;2023-08-20T03:38:45;17.00;;;14.68;;
7997;SDS011;4044;49.814;7.828;2023-08-20T03:41:11;16.40;;;13.45;;
7997;SDS011;4044;49.814;7.828;2023-08-20T03:43:36;17.52;;;13.48;;
7997;SDS011;4044;49.814;7.828;2023-08-20T03:46:02;15.07;;;13.63;;
7997;SDS011;4044;49.814;7.828;2023-08-20T03:48:28;15.27;;;13.70;;
7997;SDS011;4044;49.814;7.828;2023-08-20T03:50:53;16.73;;;13.43;;
7997;SDS011;4044;49.814;7.828;2023-08-20T03:53:19;15.18;;;13.23;;
7997;SDS011;4044;49.814;7.828;2023-08-20T03:55:48;15.95;;;14.35;;
7997;SDS011;4044;49.814;7.828;2023-08-20T03:58:14;17.58;;;13.38;;
7997;SDS011;4044;49.814;7.828;2023-08-20T04:00:39;15.18;;;12.93;;
7997;SDS011;4044;49.814;7.828;2023-08-20T04:03:05;17.33;;;15.45;;
7997;SDS011;4044;49.814;7.828;2023-08-20T04:05:35;15.48;;;13.98;;
7997;SDS011;4044;49.814;7.828;2023-08-20T04:08:04;14.93;;;12.38;;
7997;SDS011;4044;49.814;7.828;2023-08-20T04:10:31;14.50;;;13.07;;
7997;SDS011;4044;49.814;7.828;2023-08-20T04:12:56;14.25;;;12.82;;
7997;SDS011;4044;49.814;7.828;2023-08-20T04:15:23;16.58;;;13.05;;
7997;SDS011;4044;49.814;7.828;2023-08-20T04:17:48;13.95;;;12.32;;
7997;SDS011;4044;49.814;7.828;2023-08-20T04:20:14;15.13;;;13.50;;
7997;SDS011;4044;49.814;7.828;2023-08-20T04:22:39;14.20;;;12.60;;
7997;SDS011;4044;49.814;7.828;2023-08-20T04:25:05;14.68;;;12.00;;
7997;SDS011;4044;49.814;7.828;2023-08-20T04:27:31;15.35;;;12.80;;
7997;SDS011;4044;49.814;7.828;2023-08-20T04:29:57;14.10;;;12.80;;
7997;SDS011;4044;49.814;7.828;2023-08-20T04:32:23;18.15;;;14.82;;
7997;SDS011;4044;49.814;7.828;2023-08-20T04:34:48;14.50;;;13.00;;
7997;SDS011;4044;49.814;7.828;2023-08-20T04:37:16;14.13;;;12.73;;
7997;SDS011;4044;49.814;7.828;2023-08-20T04:39:43;15.45;;;13.20;;
7997;SDS011;4044;49.814;7.828;2023-08-20T04:42:09;14.48;;;13.13;;
7997;SDS011;4044;49.814;7.828;2023-08-20T04:44:34;14.90;;;13.35;;
7997;SDS011;4044;49.814;7.828;2023-08-20T04:47:00;14.40;;;12.55;;
7997;SDS011;4044;49.814;7.828;2023-08-20T04:49:26;14.05;;;12.60;;
7997;SDS011;4044;49.814;7.828;2023-08-20T04:51:53;13.95;;;12.48;;
7997;SDS011;4044;49.814;7.828;2023-08-20T04:54:19;14.00;;;12.70;;
7997;SDS011;4044;49.814;7.828;2023-08-20T04:56:44;15.38;;;13.75;;
7997;SDS011;4044;49.814;7.828;2023-08-20T04:59:10;15.93;;;12.10;;
7997;SDS011;4044;49.814;7.828;2023-08-20T05:01:36;14.80;;;12.07;;
7997;SDS011;4044;49.814;7.828;2023-08-20T05:04:03;14.00;;;12.70;;
7997;SDS011;4044;49.814;7.828;2023-08-20T05:06:28;14.68;;;13.25;;
7997;SDS011;4044;49.814;7.828;2023-08-20T05:08:54;13.70;;;12.30;;
7997;SDS011;4044;49.814;7.828;2023-08-20T05:11:19;16.73;;;12.52;;
7997;SDS011;4044;49.814;7.828;2023-08-20T05:13:45;14.27;;;12.90;;
7997;SDS011;4044;49.814;7.828;2023-08-20T05:16:12;13.63;;;12.00;;
7997;SDS011;4044;49.814;7.828;2023-08-20T05:18:37;14.18;;;12.73;;
7997;SDS011;4044;49.814;7.828;2023-08-20T05:21:03;15.65;;;13.98;;
7997;SDS011;4044;49.814;7.828;2023-08-20T05:23:28;14.45;;;12.45;;
7997;SDS011;4044;49.814;7.828;2023-08-20T05:25:54;16.90;;;13.25;;
7997;SDS011;4044;49.814;7.828;2023-08-20T05:28:19;14.15;;;12.75;;
7997;SDS011;4044;49.814;7.828;2023-08-20T05:30:52;14.07;;;12.55;;
7997;SDS011;4044;49.814;7.828;2023-08-20T05:33:21;13.70;;;12.38;;
7997;SDS011;4044;49.814;7.828;2023-08-20T05:35:48;14.38;;;12.88;;
7997;SDS011;4044;49.814;7.828;2023-08-20T05:38:14;13.48;;;12.02;;
7997;SDS011;4044;49.814;7.828;2023-08-20T05:40:39;13.70;;;11.05;;
7997;SDS011;4044;49.814;7.828;2023-08-20T05:43:06;12.93;;;11.65;;
7997;SDS011;4044;49.814;7.828;2023-08-20T05:45:31;13.02;;;11.82;;
7997;SDS011;4044;49.814;7.828;2023-08-20T05:47:57;13.13;;;11.82;;
7997;SDS011;4044;49.814;7.828;2023-08-20T05:50:22;13.57;;;12.13;;
7997;SDS011;4044;49.814;7.828;2023-08-20T05:52:48;14.25;;;11.57;;
7997;SDS011;4044;49.814;7.828;2023-08-20T05:55:14;12.07;;;11.07;;
7997;SDS011;4044;49.814;7.828;2023-08-20T05:57:40;15.10;;;12.60;;
7997;SDS011;4044;49.814;7.828;2023-08-20T06:00:07;12.95;;;10.32;;
7997;SDS011;4044;49.814;7.828;2023-08-20T06:02:34;12.57;;;11.30;;
7997;SDS011;4044;49.814;7.828;2023-08-20T06:04:59;12.27;;;10.93;;
7997;SDS011;4044;49.814;7.828;2023-08-20T06:07:25;12.27;;;10.93;;
7997;SDS011;4044;49.814;7.828;2023-08-20T06:09:50;12.23;;;11.02;;
7997;SDS011;4044;49.814;7.828;2023-08-20T06:12:16;11.05;;;9.90;;
7997;SDS011;4044;49.814;7.828;2023-08-20T06:14:42;10.70;;;9.77;;
7997;SDS011;4044;49.814;7.828;2023-08-20T06:17:08;11.60;;;10.57;;
7997;SDS011;4044;49.814;7.828;2023-08-20T06:19:33;10.60;;;9.73;;
7997;SDS011;4044;49.814;7.828;2023-08-20T06:21:59;11.55;;;10.35;;
7997;SDS011;4044;49.814;7.828;2023-08-20T06:24:25;10.45;;;9.52;;
7997;SDS011;4044;49.814;7.828;2023-08-20T06:26:51;10.77;;;9.20;;
7997;SDS011;4044;49.814;7.828;2023-08-20T06:29:17;10.02;;;9.02;;
7997;SDS011;4044;49.814;7.828;2023-08-20T06:31:42;9.38;;;8.48;;
7997;SDS011;4044;49.814;7.828;2023-08-20T06:34:08;9.18;;;8.40;;
7997;SDS011;4044;49.814;7.828;2023-08-20T06:36:34;10.73;;;8.57;;
7997;SDS011;4044;49.814;7.828;2023-08-20T06:39:00;9.82;;;8.35;;
7997;SDS011;4044;49.814;7.828;2023-08-20T06:41:26;9.15;;;8.05;;
7997;SDS011;4044;49.814;7.828;2023-08-20T06:43:51;9.85;;;8.35;;
7997;SDS011;4044;49.814;7.828;2023-08-20T06:46:17;9.13;;;8.27;;
7997;SDS011;4044;49.814;7.828;2023-08-20T06:48:42;8.88;;;8.07;;
7997;SDS011;4044;49.814;7.828;2023-08-20T06:51:10;7.72;;;7.05;;
7997;SDS011;4044;49.814;7.828;2023-08-20T06:53:37;8.27;;;7.45;;
7997;SDS011;4044;49.814;7.828;2023-08-20T06:56:03;8.60;;;7.90;;
7997;SDS011;4044;49.814;7.828;2023-08-20T06:58:28;8.20;;;7.50;;
7997;SDS011;4044;49.814;7.828;2023-08-20T07:00:54;9.52;;;7.30;;
7997;SDS011;4044;49.814;7.828;2023-08-20T07:03:20;8.05;;;6.80;;
7997;SDS011;4044;49.814;7.828;2023-08-20T07:05:45;8.07;;;7.00;;
7997;SDS011;4044;49.814;7.828;2023-08-20T07:08:11;7.22;;;6.00;;
7997;SDS011;4044;49.814;7.828;2023-08-20T07:10:36;7.32;;;6.53;;
7997;SDS011;4044;49.814;7.828;2023-08-20T07:13:02;8.52;;;6.50;;
7997;SDS011;4044;49.814;7.828;2023-08-20T07:15:27;7.57;;;6.88;;
7997;SDS011;4044;49.814;7.828;2023-08-20T07:17:54;8.30;;;6.65;;
7997;SDS011;4044;49.814;7.828;2023-08-20T07:20:19;7.57;;;6.78;;
7997;SDS011;4044;49.814;7.828;2023-08-20T07:22:45;8.50;;;6.28;;
7997;SDS011;4044;49.814;7.828;2023-08-20T07:25:10;6.60;;;6.10;;
7997;SDS011;4044;49.814;7.828;2023-08-20T07:27:36;7.13;;;6.45;;
7997;SDS011;4044;49.814;7.828;2023-08-20T07:30:01;6.75;;;6.03;;
7997;SDS011;4044;49.814;7.828;2023-08-20T07:32:27;8.15;;;5.90;;
7997;SDS011;4044;49.814;7.828;2023-08-20T07:34:53;6.72;;;6.18;;
7997;SDS011;4044;49.814;7.828;2023-08-20T07:37:18;8.13;;;5.90;;
7997;SDS011;4044;49.814;7.828;2023-08-20T07:39:44;6.05;;;5.32;;
7997;SDS011;4044;49.814;7.828;2023-08-20T07:42:09;6.25;;;5.75;;
7997;SDS011;4044;49.814;7.828;2023-08-20T07:44:35;5.95;;;5.35;;
7997;SDS011;4044;49.814;7.828;2023-08-20T07:47:01;6.15;;;5.65;;
7997;SDS011;4044;49.814;7.828;2023-08-20T07:49:27;8.10;;;5.53;;
7997;SDS011;4044;49.814;7.828;2023-08-20T07:51:52;5.70;;;5.28;;
7997;SDS011;4044;49.814;7.828;2023-08-20T07:54:19;7.55;;;5.95;;
7997;SDS011;4044;49.814;7.828;2023-08-20T07:56:45;6.00;;;5.47;;
7997;SDS011;4044;49.814;7.828;2023-08-20T07:59:10;6.03;;;5.47;;
7997;SDS011;4044;49.814;7.828;2023-08-20T08:01:36;6.22;;;5.72;;
7997;SDS011;4044;49.814;7.828;2023-08-20T08:04:01;5.93;;;5.43;;
7997;SDS011;4044;49.814;7.828;2023-08-20T08:06:27;6.47;;;5.28;;
7997;SDS011;4044;49.814;7.828;2023-08-20T08:08:52;5.80;;;5.28;;
7997;SDS011;4044;49.814;7.828;2023-08-20T08:11:18;6.15;;;5.53;;
7997;SDS011;4044;49.814;7.828;2023-08-20T08:13:43;6.57;;;5.82;;
7997;SDS011;4044;49.814;7.828;2023-08-20T08:16:09;6.32;;;5.72;;
7997;SDS011;4044;49.814;7.828;2023-08-20T08:18:34;6.15;;;5.53;;
7997;SDS011;4044;49.814;7.828;2023-08-20T08:21:00;5.65;;;5.15;;
7997;SDS011;4044;49.814;7.828;2023-08-20T08:23:25;5.50;;;5.07;;
7997;SDS011;4044;49.814;7.828;2023-08-20T08:25:51;5.85;;;5.30;;
7997;SDS011;4044;49.814;7.828;2023-08-20T08:28:16;5.80;;;5.30;;
7997;SDS011;4044;49.814;7.828;2023-08-20T08:30:42;5.93;;;5.32;;
7997;SDS011;4044;49.814;7.828;2023-08-20T08:33:07;5.10;;;4.80;;
7997;SDS011;4044;49.814;7.828;2023-08-20T08:35:33;5.72;;;4.85;;
7997;SDS011;4044;49.814;7.828;2023-08-20T08:37:58;5.35;;;4.90;;
7997;SDS011;4044;49.814;7.828;2023-08-20T08:40:26;7.25;;;4.97;;
7997;SDS011;4044;49.814;7.828;2023-08-20T08:42:54;5.80;;;5.32;;
7997;SDS011;4044;49.814;7.828;2023-08-20T08:45:20;5.70;;;5.30;;
7997;SDS011;4044;49.814;7.828;2023-08-20T08:47:46;5.32;;;4.82;;
7997;SDS011;4044;49.814;7.828;2023-08-20T08:50:13;5.20;;;4.90;;
7997;SDS011;4044;49.814;7.828;2023-08-20T08:52:39;6.00;;;5.50;;
7997;SDS011;4044;49.814;7.828;2023-08-20T08:55:06;5.78;;;5.18;;
7997;SDS011;4044;49.814;7.828;2023-08-20T08:57:34;5.35;;;4.93;;
7997;SDS011;4044;49.814;7.828;2023-08-20T09:00:01;6.63;;;4.90;;
7997;SDS011;4044;49.814;7.828;2023-08-20T09:02:26;5.53;;;5.10;;
7997;SDS011;4044;49.814;7.828;2023-08-20T09:04:52;7.68;;;5.18;;
7997;SDS011;4044;49.814;7.828;2023-08-20T09:07:18;5.53;;;4.53;;
7997;SDS011;4044;49.814;7.828;2023-08-20T09:09:44;5.07;;;4.68;;
7997;SDS011;4044;49.814;7.828;2023-08-20T09:12:17;6.57;;;4.90;;
7997;SDS011;4044;49.814;7.828;2023-08-20T09:14:50;5.10;;;4.60;;
7997;SDS011;4044;49.814;7.828;2023-08-20T09:17:16;4.75;;;4.45;;
7997;SDS011;4044;49.814;7.828;2023-08-20T09:19:44;4.72;;;4.25;;
7997;SDS011;4044;49.814;7.828;2023-08-20T09:22:14;5.03;;;4.63;;
7997;SDS011;4044;49.814;7.828;2023-08-20T09:24:41;5.85;;;4.50;;
7997;SDS011;4044;49.814;7.828;2023-08-20T09:27:11;5.53;;;5.03;;
7997;SDS011;4044;49.814;7.828;2023-08-20T09:29:44;5.13;;;4.60;;
7997;SDS011;4044;49.814;7.828;2023-08-20T09:32:20;5.28;;;4.78;;
7997;SDS011;4044;49.814;7.828;2023-08-20T09:34:51;4.97;;;4.57;;
7997;SDS011;4044;49.814;7.828;2023-08-20T09:37:22;7.80;;;5.20;;
7997;SDS011;4044;49.814;7.828;2023-08-20T09:39:48;5.00;;;4.60;;
7997;SDS011;4044;49.814;7.828;2023-08-20T09:42:15;5.20;;;4.70;;
7997;SDS011;4044;49.814;7.828;2023-08-20T09:44:42;6.88;;;5.22;;
7997;SDS011;4044;49.814;7.828;2023-08-20T09:47:10;4.90;;;4.57;;
7997;SDS011;4044;49.814;7.828;2023-08-20T09:49:38;5.38;;;4.70;;
7997;SDS011;4044;49.814;7.828;2023-08-20T09:52:05;5.72;;;5.15;;
7997;SDS011;4044;49.814;7.828;2023-08-20T09:54:35;5.40;;;4.95;;
7997;SDS011;4044;49.814;7.828;2023-08-20T09:57:10;5.70;;;5.20;;
7997;SDS011;4044;49.814;7.828;2023-08-20T09:59:44;5.55;;;5.05;;
7997;SDS011;4044;49.814;7.828;2023-08-20T10:02:13;6.70;;;5.00;;
7997;SDS011;4044;49.814;7.828;2023-08-20T10:04:39;6.20;;;5.70;;
7997;SDS011;4044;49.814;7.828;2023-08-20T10:07:06;7.80;;;5.90;;
7997;SDS011;4044;49.814;7.828;2023-08-20T10:09:32;5.95;;;5.45;;
7997;SDS011;4044;49.814;7.828;2023-08-20T10:11:58;5.18;;;4.70;;
7997;SDS011;4044;49.814;7.828;2023-08-20T10:14:23;7.53;;;6.82;;
7997;SDS011;4044;49.814;7.828;2023-08-20T10:16:49;7.22;;;6.53;;
7997;SDS011;4044;49.814;7.828;2023-08-20T10:19:16;7.15;;;6.45;;
7997;SDS011;4044;49.814;7.828;2023-08-20T10:21:43;8.10;;;5.20;;
7997;SDS011;4044;49.814;7.828;2023-08-20T10:24:11;5.53;;;5.03;;
7997;SDS011;4044;49.814;7.828;2023-08-20T10:26:42;6.18;;;5.68;;
7997;SDS011;4044;49.814;7.828;2023-08-20T10:32:09;5.80;;;5.30;;
7997;SDS011;4044;49.814;7.828;2023-08-20T10:34:36;5.43;;;4.93;;
7997;SDS011;4044;49.814;7.828;2023-08-20T10:37:12;5.40;;;4.82;;
7997;SDS011;4044;49.814;7.828;2023-08-20T10:39:39;5.18;;;4.78;;
7997;SDS011;4044;49.814;7.828;2023-08-20T10:42:08;5.20;;;4.70;;
7997;SDS011;4044;49.814;7.828;2023-08-20T10:47:25;5.82;;;4.80;;
7997;SDS011;4044;49.814;7.828;2023-08-20T10:49:51;7.15;;;5.05;;
7997;SDS011;4044;49.814;7.828;2023-08-20T10:52:19;5.15;;;4.75;;
7997;SDS011;4044;49.814;7.828;2023-08-20T10:54:51;5.47;;;4.82;;
7997;SDS011;4044;49.814;7.828;2023-08-20T10:57:17;5.15;;;4.75;;
7997;SDS011;4044;49.814;7.828;2023-08-20T10:59:47;4.75;;;4.35;;
7997;SDS011;4044;49.814;7.828;2023-08-20T11:02:23;5.30;;;4.80;;
7997;SDS011;4044;49.814;7.828;2023-08-20T11:04:49;5.15;;;4.63;;
7997;SDS011;4044;49.814;7.828;2023-08-20T11:07:18;4.82;;;4.53;;
7997;SDS011;4044;49.814;7.828;2023-08-20T11:09:45;5.00;;;4.60;;
7997;SDS011;4044;49.814;7.828;2023-08-20T11:12:14;4.97;;;4.50;;
7997;SDS011;4044;49.814;7.828;2023-08-20T11:14:40;5.70;;;4.10;;
7997;SDS011;4044;49.814;7.828;2023-08-20T11:17:06;4.43;;;3.97;;
7997;SDS011;4044;49.814;7.828;2023-08-20T11:19:33;4.15;;;3.70;;
7997;SDS011;4044;49.814;7.828;2023-08-20T11:21:58;5.95;;;4.30;;
7997;SDS011;4044;49.814;7.828;2023-08-20T11:24:28;4.80;;;4.38;;
7997;SDS011;4044;49.814;7.828;2023-08-20T11:26:54;4.28;;;3.83;;
7997;SDS011;4044;49.814;7.828;2023-08-20T11:29:22;5.00;;;3.92;;
7997;SDS011;4044;49.814;7.828;2023-08-20T11:31:50;4.70;;;4.40;;
7997;SDS011;4044;49.814;7.828;2023-08-20T11:34:16;4.95;;;4.43;;
7997;SDS011;4044;49.814;7.828;2023-08-20T11:36:44;4.30;;;4.00;;
7997;SDS011;4044;49.814;7.828;2023-08-20T11:39:09;5.28;;;4.30;;
7997;SDS011;4044;49.814;7.828;2023-08-20T11:41:36;4.13;;;3.92;;
7997;SDS011;4044;49.814;7.828;2023-08-20T11:44:02;4.30;;;3.90;;
7997;SDS011;4044;49.814;7.828;2023-08-20T11:46:28;4.07;;;3.78;;
7997;SDS011;4044;49.814;7.828;2023-08-20T11:51:36;4.85;;;3.67;;
7997;SDS011;4044;49.814;7.828;2023-08-20T11:54:03;4.70;;;3.75;;
7997;SDS011;4044;49.814;7.828;2023-08-20T11:56:30;4.28;;;3.90;;
7997;SDS011;4044;49.814;7.828;2023-08-20T11:59:01;4.50;;;4.20;;
7997;SDS011;4044;49.814;7.828;2023-08-20T12:01:33;4.35;;;4.03;;
7997;SDS011;4044;49.814;7.828;2023-08-20T12:04:06;4.85;;;3.70;;
7997;SDS011;4044;49.814;7.828;2023-08-20T12:06:32;3.78;;;2.88;;
7997;SDS011;4044;49.814;7.828;2023-08-20T12:09:12;3.50;;;3.30;;
7997;SDS011;4044;49.814;7.828;2023-08-20T12:11:51;4.22;;;3.45;;
7997;SDS011;4044;49.814;7.828;2023-08-20T12:14:20;3.92;;;3.40;;
7997;SDS011;4044;49.814;7.828;2023-08-20T12:16:46;5.03;;;3.50;;
7997;SDS011;4044;49.814;7.828;2023-08-20T12:19:12;5.13;;;3.17;;
7997;SDS011;4044;49.814;7.828;2023-08-20T12:21:41;3.83;;;3.38;;
7997;SDS011;4044;49.814;7.828;2023-08-20T12:24:08;3.67;;;3.15;;
7997;SDS011;4044;49.814;7.828;2023-08-20T12:26:34;4.38;;;3.10;;
7997;SDS011;4044;49.814;7.828;2023-08-20T12:29:01;3.78;;;3.47;;
7997;SDS011;4044;49.814;7.828;2023-08-20T12:31:26;3.47;;;3.17;;
7997;SDS011;4044;49.814;7.828;2023-08-20T12:33:52;4.57;;;4.10;;
7997;SDS011;4044;49.814;7.828;2023-08-20T12:36:17;4.43;;;4.03;;
7997;SDS011;4044;49.814;7.828;2023-08-20T12:38:43;5.40;;;3.83;;
7997;SDS011;4044;49.814;7.828;2023-08-20T12:41:08;4.10;;;3.75;;
7997;SDS011;4044;49.814;7.828;2023-08-20T12:43:34;4.45;;;4.10;;
7997;SDS011;4044;49.814;7.828;2023-08-20T12:46:00;4.65;;;4.25;;
7997;SDS011;4044;49.814;7.828;2023-08-20T12:48:25;4.78;;;4.00;;
7997;SDS011;4044;49.814;7.828;2023-08-20T12:50:50;4.72;;;3.75;;
7997;SDS011;4044;49.814;7.828;2023-08-20T12:53:16;4.30;;;3.90;;
7997;SDS011;4044;49.814;7.828;2023-08-20T12:55:41;5.05;;;3.88;;
7997;SDS011;4044;49.814;7.828;2023-08-20T12:58:07;4.70;;;4.32;;
7997;SDS011;4044;49.814;7.828;2023-08-20T13:00:33;4.97;;;4.47;;
7997;SDS011;4044;49.814;7.828;2023-08-20T13:02:58;4.55;;;4.22;;
7997;SDS011;4044;49.814;7.828;2023-08-20T13:05:24;4.45;;;4.05;;
7997;SDS011;4044;49.814;7.828;2023-08-20T13:07:51;4.55;;;4.18;;
7997;SDS011;4044;49.814;7.828;2023-08-20T13:10:17;5.32;;;4.30;;
7997;SDS011;4044;49.814;7.828;2023-08-20T13:13:01;4.20;;;4.00;;
7997;SDS011;4044;49.814;7.828;2023-08-20T13:15:27;4.70;;;4.30;;
7997;SDS011;4044;49.814;7.828;2023-08-20T13:17:53;4.90;;;4.22;;
7997;SDS011;4044;49.814;7.828;2023-08-20T13:20:20;4.30;;;4.00;;
7997;SDS011;4044;49.814;7.828;2023-08-20T13:22:48;5.18;;;4.35;;
7997;SDS011;4044;49.814;7.828;2023-08-20T13:25:14;4.40;;;4.10;;
7997;SDS011;4044;49.814;7.828;2023-08-20T13:27:40;4.25;;;3.95;;
7997;SDS011;4044;49.814;7.828;2023-08-20T13:30:06;5.60;;;4.22;;
7997;SDS011;4044;49.814;7.828;2023-08-20T13:32:33;4.70;;;4.40;;
7997;SDS011;4044;49.814;7.828;2023-08-20T13:35:02;4.18;;;3.88;;
7997;SDS011;4044;49.814;7.828;2023-08-20T13:37:29;4.60;;;4.20;;
7997;SDS011;4044;49.814;7.828;2023-08-20T13:39:56;4.47;;;4.18;;
7997;SDS011;4044;49.814;7.828;2023-08-20T13:42:22;4.97;;;4.03;;
7997;SDS011;4044;49.814;7.828;2023-08-20T13:44:47;4.75;;;4.30;;
7997;SDS011;4044;49.814;7.828;2023-08-20T13:47:13;3.97;;;3.65;;
7997;SDS011;4044;49.814;7.828;2023-08-20T13:49:38;4.32;;;3.70;;
7997;SDS011;4044;49.814;7.828;2023-08-20T13:52:04;4.40;;;4.05;;
7997;SDS011;4044;49.814;7.828;2023-08-20T13:54:29;4.47;;;4.15;;
7997;SDS011;4044;49.814;7.828;2023-08-20T13:56:55;4.10;;;3.80;;
7997;SDS011;4044;49.814;7.828;2023-08-20T13:59:21;5.00;;;4.10;;
7997;SDS011;4044;49.814;7.828;2023-08-20T14:01:47;4.55;;;4.15;;
7997;SDS011;4044;49.814;7.828;2023-08-20T14:04:13;5.07;;;4.30;;
7997;SDS011;4044;49.814;7.828;2023-08-20T14:06:38;4.88;;;4.20;;
7997;SDS011;4044;49.814;7.828;2023-08-20T14:09:04;4.43;;;4.10;;
7997;SDS011;4044;49.814;7.828;2023-08-20T14:11:30;4.20;;;3.90;;
7997;SDS011;4044;49.814;7.828;2023-08-20T14:13:55;5.00;;;4.28;;
7997;SDS011;4044;49.814;7.828;2023-08-20T14:16:21;4.57;;;4.28;;
7997;SDS011;4044;49.814;7.828;2023-08-20T14:18:46;6.38;;;4.47;;
7997;SDS011;4044;49.814;7.828;2023-08-20T14:21:12;4.85;;;4.45;;
7997;SDS011;4044;49.814;7.828;2023-08-20T14:23:38;4.65;;;4.35;;
7997;SDS011;4044;49.814;7.828;2023-08-20T14:26:05;4.85;;;4.40;;
7997;SDS011;4044;49.814;7.828;2023-08-20T14:28:32;4.68;;;4.28;;
7997;SDS011;4044;49.814;7.828;2023-08-20T14:30:58;4.55;;;4.15;;
7997;SDS011;4044;49.814;7.828;2023-08-20T14:33:30;4.50;;;4.07;;
7997;SDS011;4044;49.814;7.828;2023-08-20T14:35:56;4.68;;;4.25;;
7997;SDS011;4044;49.814;7.828;2023-08-20T14:38:22;4.78;;;4.38;;
7997;SDS011;4044;49.814;7.828;2023-08-20T14:40:47;4.35;;;4.05;;
7997;SDS011;4044;49.814;7.828;2023-08-20T14:43:13;4.72;;;4.22;;
7997;SDS011;4044;49.814;7.828;2023-08-20T14:45:38;4.57;;;4.10;;
7997;SDS011;4044;49.814;7.828;2023-08-20T14:48:04;4.50;;;4.10;;
7997;SDS011;4044;49.814;7.828;2023-08-20T14:50:30;4.53;;;4.22;;
7997;SDS011;4044;49.814;7.828;2023-08-20T14:52:56;5.80;;;4.85;;
7997;SDS011;4044;49.814;7.828;2023-08-20T14:55:22;4.95;;;4.30;;
7997;SDS011;4044;49.814;7.828;2023-08-20T14:57:47;4.57;;;4.13;;
7997;SDS011;4044;49.814;7.828;2023-08-20T15:00:13;4.68;;;4.20;;
7997;SDS011;4044;49.814;7.828;2023-08-20T15:02:40;4.30;;;3.90;;
7997;SDS011;4044;49.814;7.828;2023-08-20T15:05:06;4.95;;;4.50;;
7997;SDS011;4044;49.814;7.828;2023-08-20T15:07:32;5.57;;;4.63;;
7997;SDS011;4044;49.814;7.828;2023-08-20T15:09:57;4.57;;;4.30;;
7997;SDS011;4044;49.814;7.828;2023-08-20T15:12:23;4.45;;;4.10;;